Time;durP1;ratioP1;P1;durP2;ratioP2;P2;SDS_P1;SDS_P2;PMS_P1;PMS_P2;Temp;Humidity;BMP_temperature;BMP_pressure;BME280_temperature;BME280_humidity;BME280_pressure;Samples;Min_cycle;Max_cycle;Signal;HPM_P1;HPM_P2
2022/03/24 00:01:21;;;;;;;34.03;22.92;;;;;;;;;;4963921;28;20027;-81
2022/03/24 00:03:46;;;;;;;33.53;23.23;;;;;;;;;;4978971;28;20077;-83
2022/03/24 00:06:12;;;;;;;35.70;22.88;;;;;;;;;;4961319;28;20038;-79
2022/03/24 00:08:38;;;;;;;32.80;22.52;;;;;;;;;;4977972;28;20201;-81
2022/03/24 00:11:03;;;;;;;31.33;22.27;;;;;;;;;;4962389;28;20158;-83
2022/03/24 00:13:29;;;;;;;34.35;21.55;;;;;;;;;;4982823;28;20049;-83
2022/03/24 00:15:54;;;;;;;37.47;22.35;;;;;;;;;;4980801;28;20057;-81
2022/03/24 00:18:19;;;;;;;32.63;21.85;;;;;;;;;;4993812;28;20022;-83
2022/03/24 00:20:45;;;;;;;34.45;22.40;;;;;;;;;;4980477;28;20033;-83
2022/03/24 00:23:10;;;;;;;35.15;22.80;;;;;;;;;;4962020;28;20137;-82
2022/03/24 00:25:35;;;;;;;39.45;22.63;;;;;;;;;;4965136;28;20038;-81
2022/03/24 00:28:01;;;;;;;31.92;21.70;;;;;;;;;;4984363;28;20545;-79
2022/03/24 00:30:26;;;;;;;29.95;21.42;;;;;;;;;;4969467;28;20472;-83
2022/03/24 00:32:52;;;;;;;33.20;21.60;;;;;;;;;;4970122;28;20027;-85
2022/03/24 00:35:17;;;;;;;30.60;20.50;;;;;;;;;;4969557;28;20438;-85
2022/03/24 00:37:43;;;;;;;30.65;20.77;;;;;;;;;;4995372;28;20761;-84
2022/03/24 00:40:09;;;;;;;33.65;21.83;;;;;;;;;;4967045;28;20030;-79
2022/03/24 00:42:37;;;;;;;29.90;21.33;;;;;;;;;;4966434;28;20054;-79
2022/03/24 00:45:09;;;;;;;29.75;20.25;;;;;;;;;;4985062;28;20029;-82
2022/03/24 00:47:35;;;;;;;30.25;21.30;;;;;;;;;;4980622;28;20042;-78
2022/03/24 00:50:01;;;;;;;35.47;21.42;;;;;;;;;;4966424;28;20108;-81
2022/03/24 00:52:26;;;;;;;30.70;20.90;;;;;;;;;;4968841;28;20034;-83
2022/03/24 00:54:52;;;;;;;30.20;21.10;;;;;;;;;;4996830;28;20108;-79
2022/03/24 00:57:17;;;;;;;34.22;21.33;;;;;;;;;;4968025;28;20066;-83
2022/03/24 00:59:42;;;;;;;33.40;21.83;;;;;;;;;;4982072;28;20066;-81
2022/03/24 01:02:09;;;;;;;33.25;21.15;;;;;;;;;;4977307;28;20026;-79
2022/03/24 01:04:35;;;;;;;31.13;20.67;;;;;;;;;;4966422;28;20037;-82
2022/03/24 01:07:01;;;;;;;33.22;21.08;;;;;;;;;;4964398;28;20026;-83
2022/03/24 01:09:26;;;;;;;31.90;20.35;;;;;;;;;;4983938;28;20030;-81
2022/03/24 01:11:51;;;;;;;30.75;20.05;;;;;;;;;;4965461;28;20030;-81
2022/03/24 01:14:17;;;;;;;30.38;19.88;;;;;;;;;;4983657;28;20042;-79
2022/03/24 01:16:43;;;;;;;30.55;19.80;;;;;;;;;;4970921;28;20073;-82
2022/03/24 01:19:08;;;;;;;31.27;19.33;;;;;;;;;;4976811;28;20038;-81
2022/03/24 01:21:36;;;;;;;31.00;21.52;;;;;;;;;;4986236;28;20040;-80
2022/03/24 01:24:01;;;;;;;31.58;20.42;;;;;;;;;;4985434;28;20045;-81
2022/03/24 01:26:27;;;;;;;31.65;20.40;;;;;;;;;;4968206;28;20062;-79
2022/03/24 01:28:53;;;;;;;32.45;20.33;;;;;;;;;;4966048;28;20037;-79
2022/03/24 01:31:20;;;;;;;30.35;19.23;;;;;;;;;;4998138;28;20042;-83
2022/03/24 01:33:47;;;;;;;29.38;19.60;;;;;;;;;;4962835;28;20109;-81
2022/03/24 01:36:13;;;;;;;28.13;18.63;;;;;;;;;;4980232;28;20114;-83
2022/03/24 01:38:39;;;;;;;28.90;18.83;;;;;;;;;;4982513;28;20026;-85
2022/03/24 01:41:07;;;;;;;27.75;19.13;;;;;;;;;;4963262;28;20042;-81
2022/03/24 01:43:33;;;;;;;31.35;20.20;;;;;;;;;;4958416;28;20175;-83
2022/03/24 01:45:59;;;;;;;28.65;19.08;;;;;;;;;;4964037;28;20136;-78
2022/03/24 01:48:26;;;;;;;29.92;19.08;;;;;;;;;;4996761;28;20026;-85
2022/03/24 01:50:52;;;;;;;28.63;18.85;;;;;;;;;;4979563;28;20026;-85
2022/03/24 01:53:18;;;;;;;28.42;19.63;;;;;;;;;;4965159;28;20516;-81
2022/03/24 01:55:46;;;;;;;31.42;20.30;;;;;;;;;;4985370;28;20908;-83
2022/03/24 01:58:12;;;;;;;32.63;19.83;;;;;;;;;;4967026;28;20026;-78
2022/03/24 02:00:38;;;;;;;25.50;18.58;;;;;;;;;;4964752;28;20038;-82
2022/03/24 02:03:04;;;;;;;30.88;19.10;;;;;;;;;;4983833;28;20387;-78
2022/03/24 02:05:35;;;;;;;29.35;20.20;;;;;;;;;;4956212;28;20035;-81
2022/03/24 02:08:03;;;;;;;32.90;19.02;;;;;;;;;;4961905;28;20060;-84
2022/03/24 02:10:32;;;;;;;27.25;17.92;;;;;;;;;;4961802;28;20034;-79
2022/03/24 02:12:57;;;;;;;25.67;18.27;;;;;;;;;;4960782;28;20038;-82
2022/03/24 02:15:24;;;;;;;28.67;18.25;;;;;;;;;;4964092;28;20026;-81
2022/03/24 02:17:52;;;;;;;27.70;18.20;;;;;;;;;;4966360;28;20651;-83
2022/03/24 02:20:18;;;;;;;27.65;18.05;;;;;;;;;;4971079;28;20041;-85
2022/03/24 02:22:44;;;;;;;27.20;18.15;;;;;;;;;;4964184;28;20132;-78
2022/03/24 02:25:09;;;;;;;28.02;17.38;;;;;;;;;;4969086;28;20025;-80
2022/03/24 02:27:36;;;;;;;27.45;18.95;;;;;;;;;;4994188;28;20022;-83
2022/03/24 02:30:03;;;;;;;29.23;17.95;;;;;;;;;;4977771;28;20036;-81
2022/03/24 02:32:30;;;;;;;26.60;17.95;;;;;;;;;;4966406;28;20041;-81
2022/03/24 02:34:55;;;;;;;27.17;18.05;;;;;;;;;;4980214;28;20038;-84
2022/03/24 02:37:22;;;;;;;28.38;18.58;;;;;;;;;;4976600;28;20034;-85
2022/03/24 02:39:53;;;;;;;27.80;17.50;;;;;;;;;;4979544;28;20042;-80
2022/03/24 02:42:21;;;;;;;28.25;18.42;;;;;;;;;;4962613;28;20502;-85
2022/03/24 02:44:53;;;;;;;29.10;18.35;;;;;;;;;;4956497;28;20050;-81
2022/03/24 02:47:18;;;;;;;26.80;17.63;;;;;;;;;;4960482;28;20038;-79
2022/03/24 02:49:46;;;;;;;27.67;18.38;;;;;;;;;;4962403;28;20521;-85
2022/03/24 02:52:12;;;;;;;26.63;17.50;;;;;;;;;;4958861;28;20054;-80
2022/03/24 02:54:38;;;;;;;25.25;16.77;;;;;;;;;;4959123;28;20101;-81
2022/03/24 02:57:04;;;;;;;26.50;17.00;;;;;;;;;;4995418;28;20027;-79
2022/03/24 02:59:30;;;;;;;24.00;16.83;;;;;;;;;;4960748;28;20378;-83
2022/03/24 03:02:01;;;;;;;29.08;17.15;;;;;;;;;;4963677;28;20034;-81
2022/03/24 03:04:34;;;;;;;25.15;17.42;;;;;;;;;;4964219;28;20045;-85
2022/03/24 03:07:00;;;;;;;26.52;16.50;;;;;;;;;;4961613;28;20039;-81
2022/03/24 03:09:26;;;;;;;29.13;17.38;;;;;;;;;;4960783;28;20110;-81
2022/03/24 03:11:52;;;;;;;25.63;16.75;;;;;;;;;;4960159;28;20500;-83
2022/03/24 03:14:18;;;;;;;28.33;17.10;;;;;;;;;;4959736;28;20034;-84
2022/03/24 03:16:45;;;;;;;26.70;17.55;;;;;;;;;;4960222;28;20035;-86
2022/03/24 03:19:11;;;;;;;29.48;17.95;;;;;;;;;;4961873;28;20532;-85
2022/03/24 03:21:39;;;;;;;28.15;17.67;;;;;;;;;;4979307;28;20346;-79
2022/03/24 03:24:05;;;;;;;28.30;17.65;;;;;;;;;;4962134;28;20081;-80
2022/03/24 03:26:30;;;;;;;26.02;17.50;;;;;;;;;;4964610;28;20057;-84
2022/03/24 03:28:56;;;;;;;30.08;18.60;;;;;;;;;;4962836;28;20038;-80
2022/03/24 03:31:22;;;;;;;28.05;17.75;;;;;;;;;;4962594;28;20027;-79
2022/03/24 03:33:48;;;;;;;27.85;17.65;;;;;;;;;;4966715;28;20035;-85
2022/03/24 03:36:13;;;;;;;30.67;17.80;;;;;;;;;;4967600;28;20054;-84
2022/03/24 03:38:39;;;;;;;27.40;18.08;;;;;;;;;;4965420;28;20057;-81
2022/03/24 03:41:05;;;;;;;27.33;16.92;;;;;;;;;;4967383;28;20129;-81
2022/03/24 03:43:31;;;;;;;26.27;17.15;;;;;;;;;;4946036;28;20051;-84
2022/03/24 03:45:56;;;;;;;26.70;16.52;;;;;;;;;;4942528;28;20031;-81
2022/03/24 03:48:21;;;;;;;29.48;18.05;;;;;;;;;;4947168;28;20066;-81
2022/03/24 03:50:48;;;;;;;29.23;17.52;;;;;;;;;;4946998;28;20039;-85
2022/03/24 03:53:14;;;;;;;25.58;16.75;;;;;;;;;;4945021;28;20487;-84
2022/03/24 03:55:43;;;;;;;28.13;17.60;;;;;;;;;;4945620;28;20035;-83
2022/03/24 03:58:08;;;;;;;27.50;17.33;;;;;;;;;;4942843;28;20058;-79
2022/03/24 04:00:53;;;;;;;29.77;17.58;;;;;;;;;;4944799;28;20543;-79
2022/03/24 04:03:23;;;;;;;28.98;17.10;;;;;;;;;;4941047;28;20579;-84
2022/03/24 04:05:50;;;;;;;28.30;16.92;;;;;;;;;;4943922;28;20090;-82
2022/03/24 04:08:15;;;;;;;25.65;16.73;;;;;;;;;;4942258;28;20519;-83
2022/03/24 04:10:41;;;;;;;26.48;16.38;;;;;;;;;;4946159;28;20158;-83
2022/03/24 04:13:06;;;;;;;25.40;16.15;;;;;;;;;;4943030;28;20042;-82
2022/03/24 04:15:33;;;;;;;25.90;16.85;;;;;;;;;;4945133;28;20159;-83
2022/03/24 04:17:59;;;;;;;26.38;17.00;;;;;;;;;;4947089;28;20514;-80
2022/03/24 04:20:24;;;;;;;28.58;17.45;;;;;;;;;;4943156;28;20082;-81
2022/03/24 04:22:50;;;;;;;28.20;17.70;;;;;;;;;;4943236;28;20407;-78
2022/03/24 04:25:20;;;;;;;25.30;15.50;;;;;;;;;;4941323;28;20045;-79
2022/03/24 04:27:47;;;;;;;29.15;17.83;;;;;;;;;;4944792;28;20031;-82
2022/03/24 04:30:13;;;;;;;28.70;16.98;;;;;;;;;;4948188;28;20146;-81
2022/03/24 04:32:39;;;;;;;25.67;16.60;;;;;;;;;;4949363;28;20578;-86
2022/03/24 04:35:08;;;;;;;26.52;17.13;;;;;;;;;;4951878;28;20402;-85
2022/03/24 04:37:35;;;;;;;25.65;17.85;;;;;;;;;;4945139;28;20114;-83
2022/03/24 04:40:00;;;;;;;30.42;16.48;;;;;;;;;;4975953;28;20047;-81
2022/03/24 04:42:26;;;;;;;27.10;17.80;;;;;;;;;;4944590;28;20047;-83
2022/03/24 04:44:51;;;;;;;26.42;16.73;;;;;;;;;;4944072;28;20038;-78
2022/03/24 04:47:17;;;;;;;25.33;16.90;;;;;;;;;;4946013;28;20110;-78
2022/03/24 04:49:43;;;;;;;27.27;16.75;;;;;;;;;;4942324;28;20035;-80
2022/03/24 04:52:10;;;;;;;26.65;17.30;;;;;;;;;;4975097;28;20071;-86
2022/03/24 04:54:35;;;;;;;27.83;16.92;;;;;;;;;;4940840;28;20660;-81
2022/03/24 04:57:01;;;;;;;23.98;16.63;;;;;;;;;;4940571;28;20031;-83
2022/03/24 04:59:27;;;;;;;29.35;18.38;;;;;;;;;;4940939;28;20035;-82
2022/03/24 05:01:52;;;;;;;25.95;17.00;;;;;;;;;;4944140;28;20034;-83
2022/03/24 05:04:18;;;;;;;29.13;17.58;;;;;;;;;;4943900;28;20027;-85
2022/03/24 05:06:43;;;;;;;27.60;17.88;;;;;;;;;;4942933;28;20073;-85
2022/03/24 05:09:09;;;;;;;28.88;18.38;;;;;;;;;;4943778;28;20050;-83
2022/03/24 05:11:34;;;;;;;29.80;16.88;;;;;;;;;;4945290;28;20045;-81
2022/03/24 05:14:01;;;;;;;27.92;18.45;;;;;;;;;;4944891;28;20516;-85
2022/03/24 05:16:27;;;;;;;27.33;16.77;;;;;;;;;;4947259;28;20122;-83
2022/03/24 05:18:53;;;;;;;25.00;17.75;;;;;;;;;;4956744;28;20023;-80
2022/03/24 05:21:19;;;;;;;27.45;16.95;;;;;;;;;;4976847;28;20121;-81
2022/03/24 05:23:44;;;;;;;28.98;17.77;;;;;;;;;;4944891;28;20047;-82
2022/03/24 05:26:10;;;;;;;26.15;17.92;;;;;;;;;;4942648;28;20039;-78
2022/03/24 05:28:35;;;;;;;28.27;18.33;;;;;;;;;;4943417;28;20031;-81
2022/03/24 05:31:00;;;;;;;30.33;17.83;;;;;;;;;;4941934;28;20431;-81
2022/03/24 05:33:26;;;;;;;30.90;17.63;;;;;;;;;;4942664;28;20023;-85
2022/03/24 05:35:51;;;;;;;28.38;17.75;;;;;;;;;;4978083;28;20042;-83
2022/03/24 05:38:17;;;;;;;33.63;18.42;;;;;;;;;;4941557;28;20035;-82
2022/03/24 05:40:42;;;;;;;29.08;17.15;;;;;;;;;;4943771;28;20035;-83
2022/03/24 05:43:08;;;;;;;27.55;18.17;;;;;;;;;;4956744;28;20046;-79
2022/03/24 05:45:33;;;;;;;30.75;18.52;;;;;;;;;;4964951;28;20038;-79
2022/03/24 05:47:59;;;;;;;30.90;18.80;;;;;;;;;;4959222;28;20039;-80
2022/03/24 05:50:25;;;;;;;34.38;19.63;;;;;;;;;;4961546;28;20034;-84
2022/03/24 05:52:51;;;;;;;31.65;17.77;;;;;;;;;;4962031;28;20031;-79
2022/03/24 05:55:17;;;;;;;32.85;20.15;;;;;;;;;;4964949;28;20042;-83
2022/03/24 05:57:44;;;;;;;28.70;18.60;;;;;;;;;;4962797;28;20035;-80
2022/03/24 06:00:10;;;;;;;28.95;19.40;;;;;;;;;;4962942;28;20034;-81
2022/03/24 06:02:35;;;;;;;28.70;18.63;;;;;;;;;;4963653;28;20058;-81
2022/03/24 06:05:01;;;;;;;31.70;19.40;;;;;;;;;;4965627;28;20069;-85
2022/03/24 06:07:29;;;;;;;29.75;18.80;;;;;;;;;;4978226;28;20031;-86
2022/03/24 06:09:54;;;;;;;27.92;18.67;;;;;;;;;;4991071;28;20085;-80
2022/03/24 06:12:21;;;;;;;30.90;19.45;;;;;;;;;;4960246;28;20385;-81
2022/03/24 06:14:46;;;;;;;30.85;19.60;;;;;;;;;;4963758;28;20041;-79
2022/03/24 06:17:11;;;;;;;33.90;19.77;;;;;;;;;;4973027;28;20113;-79
2022/03/24 06:19:37;;;;;;;32.72;19.40;;;;;;;;;;4993171;28;20035;-85
2022/03/24 06:22:03;;;;;;;29.92;19.25;;;;;;;;;;4963941;28;20621;-83
2022/03/24 06:24:32;;;;;;;31.65;19.15;;;;;;;;;;4963282;28;20031;-81
2022/03/24 06:26:58;;;;;;;27.88;18.65;;;;;;;;;;4963970;28;20044;-83
2022/03/24 06:29:24;;;;;;;32.83;19.92;;;;;;;;;;4963468;28;20479;-84
2022/03/24 06:31:49;;;;;;;31.60;19.77;;;;;;;;;;4957964;28;20035;-82
2022/03/24 06:34:15;;;;;;;32.80;20.52;;;;;;;;;;4964957;28;20125;-80
2022/03/24 06:36:41;;;;;;;34.50;20.73;;;;;;;;;;4962804;28;20058;-85
2022/03/24 06:39:08;;;;;;;34.22;20.48;;;;;;;;;;4960947;28;20478;-80
2022/03/24 06:41:33;;;;;;;32.45;20.10;;;;;;;;;;4964166;28;20043;-84
2022/03/24 06:43:59;;;;;;;32.17;20.27;;;;;;;;;;4967990;28;20045;-83
2022/03/24 06:46:26;;;;;;;35.08;21.05;;;;;;;;;;4985903;28;20030;-86
2022/03/24 06:48:52;;;;;;;35.17;21.70;;;;;;;;;;4967011;28;20069;-86
2022/03/24 06:51:18;;;;;;;38.30;21.33;;;;;;;;;;4980136;28;20043;-78
2022/03/24 06:53:44;;;;;;;33.10;20.55;;;;;;;;;;4981102;28;20121;-77
2022/03/24 06:56:09;;;;;;;33.53;20.38;;;;;;;;;;4984422;28;20101;-85
2022/03/24 06:58:35;;;;;;;34.65;21.55;;;;;;;;;;4964221;28;20491;-79
2022/03/24 07:01:00;;;;;;;36.15;22.05;;;;;;;;;;4960941;28;20535;-81
2022/03/24 07:03:26;;;;;;;35.75;21.30;;;;;;;;;;4976764;28;20025;-79
2022/03/24 07:05:51;;;;;;;40.40;23.50;;;;;;;;;;4963231;28;20108;-83
2022/03/24 07:08:16;;;;;;;40.38;23.02;;;;;;;;;;4977251;28;20034;-81
2022/03/24 07:10:42;;;;;;;39.42;22.63;;;;;;;;;;4965316;28;20509;-78
2022/03/24 07:13:07;;;;;;;37.13;21.60;;;;;;;;;;4982573;28;20031;-85
2022/03/24 07:15:33;;;;;;;33.20;21.30;;;;;;;;;;4963750;28;20034;-81
2022/03/24 07:17:58;;;;;;;39.90;21.55;;;;;;;;;;4964990;28;20038;-80
2022/03/24 07:20:24;;;;;;;39.78;22.30;;;;;;;;;;4968683;28;20585;-87
2022/03/24 07:22:50;;;;;;;33.72;21.52;;;;;;;;;;4982801;28;20037;-80
2022/03/24 07:25:15;;;;;;;35.22;21.10;;;;;;;;;;4982741;28;20121;-83
2022/03/24 07:27:42;;;;;;;36.67;20.33;;;;;;;;;;4960067;28;20054;-80
2022/03/24 07:30:09;;;;;;;36.80;21.45;;;;;;;;;;4962210;28;20486;-83
2022/03/24 07:32:35;;;;;;;33.67;21.80;;;;;;;;;;4964845;28;20200;-80
2022/03/24 07:35:01;;;;;;;36.22;21.65;;;;;;;;;;4964283;28;20113;-83
2022/03/24 07:37:29;;;;;;;40.47;22.70;;;;;;;;;;4970153;28;20822;-86
2022/03/24 07:39:55;;;;;;;35.33;23.25;;;;;;;;;;4969495;28;20022;-86
2022/03/24 07:42:21;;;;;;;41.72;25.27;;;;;;;;;;4972544;28;20130;-81
2022/03/24 07:44:48;;;;;;;40.47;24.50;;;;;;;;;;4991137;28;20086;-81
2022/03/24 07:47:13;;;;;;;41.50;24.23;;;;;;;;;;5000363;28;20068;-78
2022/03/24 07:49:38;;;;;;;37.38;24.70;;;;;;;;;;4972485;28;20030;-84
2022/03/24 07:52:10;;;;;;;36.53;23.88;;;;;;;;;;4975388;28;20018;-79
2022/03/24 07:55:05;;;;;;;36.67;22.40;;;;;;;;;;4990573;28;20113;-81
2022/03/24 07:57:30;;;;;;;33.28;20.80;;;;;;;;;;4991869;28;20766;-80
2022/03/24 07:59:59;;;;;;;36.42;22.60;;;;;;;;;;4969598;28;20026;-87
2022/03/24 08:02:25;;;;;;;35.15;22.13;;;;;;;;;;4975600;28;20023;-78
2022/03/24 08:04:52;;;;;;;40.17;21.60;;;;;;;;;;4978079;28;20032;-84
2022/03/24 08:07:18;;;;;;;30.90;20.55;;;;;;;;;;4975936;28;20041;-79
2022/03/24 08:09:43;;;;;;;33.72;21.10;;;;;;;;;;4973811;28;20026;-86
2022/03/24 08:12:11;;;;;;;35.75;21.25;;;;;;;;;;4981996;28;20106;-81
2022/03/24 08:14:37;;;;;;;37.72;21.23;;;;;;;;;;4975109;28;20588;-82
2022/03/24 08:17:06;;;;;;;34.30;21.33;;;;;;;;;;4975338;28;20033;-86
2022/03/24 08:19:31;;;;;;;38.05;21.95;;;;;;;;;;4994463;28;20041;-83
2022/03/24 08:21:57;;;;;;;31.50;21.17;;;;;;;;;;5009290;28;20023;-81
2022/03/24 08:24:22;;;;;;;30.13;21.88;;;;;;;;;;4976626;28;20029;-87
2022/03/24 08:26:47;;;;;;;41.10;22.00;;;;;;;;;;4979067;28;20053;-79
2022/03/24 08:29:13;;;;;;;39.13;22.15;;;;;;;;;;4995496;28;20034;-81
2022/03/24 08:31:38;;;;;;;34.15;21.40;;;;;;;;;;4975612;28;20030;-87
2022/03/24 08:34:03;;;;;;;33.33;22.48;;;;;;;;;;4994288;28;20092;-81
2022/03/24 08:36:29;;;;;;;37.47;22.85;;;;;;;;;;4977909;28;20023;-79
2022/03/24 08:38:56;;;;;;;30.40;20.73;;;;;;;;;;4973646;28;20058;-79
2022/03/24 08:41:22;;;;;;;30.95;21.08;;;;;;;;;;4977077;28;20105;-86
2022/03/24 08:43:47;;;;;;;44.10;22.27;;;;;;;;;;4976594;28;20125;-81
2022/03/24 08:46:13;;;;;;;33.88;21.90;;;;;;;;;;4979654;28;20026;-79
2022/03/24 08:48:38;;;;;;;35.63;21.50;;;;;;;;;;4978222;28;20038;-84
2022/03/24 08:51:04;;;;;;;32.53;21.08;;;;;;;;;;4976865;28;20506;-85
2022/03/24 08:53:29;;;;;;;31.17;20.83;;;;;;;;;;4975993;28;20030;-84
2022/03/24 08:55:55;;;;;;;32.03;21.30;;;;;;;;;;4995233;28;20038;-87
2022/03/24 08:58:21;;;;;;;33.45;20.88;;;;;;;;;;5008989;28;20030;-79
2022/03/24 09:00:47;;;;;;;32.55;21.88;;;;;;;;;;4995070;28;20113;-86
2022/03/24 09:03:12;;;;;;;32.92;21.20;;;;;;;;;;4975458;28;20072;-81
2022/03/24 09:05:38;;;;;;;32.05;21.35;;;;;;;;;;4978086;28;20509;-81
2022/03/24 09:08:04;;;;;;;31.42;21.15;;;;;;;;;;4976023;28;20402;-85
2022/03/24 09:10:29;;;;;;;32.72;22.13;;;;;;;;;;4976330;28;20042;-79
2022/03/24 09:12:55;;;;;;;33.38;21.67;;;;;;;;;;4976251;28;20038;-84
2022/03/24 09:15:20;;;;;;;31.63;21.55;;;;;;;;;;4975831;28;20022;-87
2022/03/24 09:17:47;;;;;;;30.92;21.58;;;;;;;;;;4991449;28;20038;-80
2022/03/24 09:20:14;;;;;;;28.65;20.73;;;;;;;;;;4980230;28;20023;-86
2022/03/24 09:22:42;;;;;;;34.00;20.98;;;;;;;;;;4974011;28;20049;-79
2022/03/24 09:25:08;;;;;;;31.23;20.38;;;;;;;;;;4992314;28;20512;-86
2022/03/24 09:27:34;;;;;;;30.10;18.77;;;;;;;;;;4976819;28;20073;-86
2022/03/24 09:30:00;;;;;;;30.58;19.45;;;;;;;;;;4993133;28;20112;-78
2022/03/24 09:32:25;;;;;;;29.35;18.83;;;;;;;;;;5006697;28;20073;-85
2022/03/24 09:34:51;;;;;;;29.02;19.65;;;;;;;;;;4992605;28;20030;-79
2022/03/24 09:37:22;;;;;;;29.85;20.20;;;;;;;;;;4993539;28;20026;-85
2022/03/24 09:39:48;;;;;;;29.48;20.30;;;;;;;;;;4973160;28;20034;-78
2022/03/24 09:42:13;;;;;;;28.55;20.50;;;;;;;;;;5009197;28;20234;-79
2022/03/24 09:44:41;;;;;;;29.48;19.60;;;;;;;;;;4993254;28;20030;-87
2022/03/24 09:47:09;;;;;;;33.28;20.20;;;;;;;;;;4975601;28;20114;-85
2022/03/24 09:49:35;;;;;;;27.75;19.05;;;;;;;;;;4979362;28;20429;-86
2022/03/24 09:52:01;;;;;;;24.10;17.52;;;;;;;;;;4974673;28;20050;-85
2022/03/24 09:54:26;;;;;;;28.88;19.23;;;;;;;;;;4975450;28;20061;-86
2022/03/24 09:56:51;;;;;;;25.95;18.88;;;;;;;;;;4970645;28;20057;-79
2022/03/24 09:59:16;;;;;;;26.88;18.95;;;;;;;;;;4976297;28;20170;-79
2022/03/24 10:01:42;;;;;;;32.08;19.67;;;;;;;;;;4976736;28;20112;-79
2022/03/24 10:04:10;;;;;;;26.13;17.98;;;;;;;;;;4992720;28;20544;-84
2022/03/24 10:06:40;;;;;;;30.95;19.00;;;;;;;;;;5000240;28;20089;-78
2022/03/24 10:09:06;;;;;;;29.00;19.23;;;;;;;;;;5005384;28;20125;-86
2022/03/24 10:11:31;;;;;;;30.45;18.85;;;;;;;;;;5008137;28;20030;-86
2022/03/24 10:13:58;;;;;;;29.92;19.30;;;;;;;;;;4980027;28;20073;-80
2022/03/24 10:16:33;;;;;;;27.20;18.80;;;;;;;;;;4973825;28;20482;-78
2022/03/24 10:19:01;;;;;;;26.83;17.83;;;;;;;;;;4980305;28;20026;-85
2022/03/24 10:21:31;;;;;;;24.85;17.75;;;;;;;;;;4987044;28;20022;-87
2022/03/24 10:24:07;;;;;;;29.95;18.38;;;;;;;;;;4973398;28;20022;-78
2022/03/24 10:26:45;;;;;;;27.77;18.85;;;;;;;;;;4980558;28;20045;-85
2022/03/24 10:29:19;;;;;;;27.55;17.63;;;;;;;;;;4973785;28;20478;-79
2022/03/24 10:31:50;;;;;;;26.30;18.08;;;;;;;;;;4994167;28;20482;-78
2022/03/24 10:34:15;;;;;;;28.33;18.40;;;;;;;;;;4980998;28;20042;-80
2022/03/24 10:36:41;;;;;;;24.60;16.83;;;;;;;;;;4973558;28;20044;-80
2022/03/24 10:39:08;;;;;;;27.95;18.63;;;;;;;;;;4980927;28;20053;-80
2022/03/24 10:41:35;;;;;;;31.35;18.27;;;;;;;;;;4975016;28;20088;-80
2022/03/24 10:44:12;;;;;;;27.50;17.42;;;;;;;;;;4973606;28;20019;-88
2022/03/24 10:46:41;;;;;;;26.92;17.40;;;;;;;;;;4977464;28;20428;-82
2022/03/24 10:49:23;;;;;;;28.38;17.17;;;;;;;;;;4990909;28;20439;-84
2022/03/24 10:51:49;;;;;;;23.70;17.40;;;;;;;;;;4993344;28;20386;-79
2022/03/24 10:54:15;;;;;;;26.98;16.80;;;;;;;;;;4974475;28;20105;-86
2022/03/24 10:56:46;;;;;;;25.05;17.42;;;;;;;;;;4974871;28;20124;-79
2022/03/24 10:59:12;;;;;;;21.27;15.13;;;;;;;;;;4973013;28;20022;-86
2022/03/24 11:01:37;;;;;;;25.42;15.73;;;;;;;;;;4978866;28;20034;-78
2022/03/24 11:04:03;;;;;;;26.20;16.85;;;;;;;;;;4992259;28;20038;-85
2022/03/24 11:06:30;;;;;;;27.60;16.83;;;;;;;;;;4975082;28;20026;-78
2022/03/24 11:08:59;;;;;;;27.10;17.60;;;;;;;;;;4979103;28;20033;-78
2022/03/24 11:11:25;;;;;;;26.02;16.48;;;;;;;;;;4976860;28;20386;-86
2022/03/24 11:14:03;;;;;;;30.33;16.55;;;;;;;;;;4972942;28;20037;-78
2022/03/24 11:16:31;;;;;;;28.02;16.55;;;;;;;;;;4990913;28;20034;-79
2022/03/24 11:18:58;;;;;;;22.83;15.95;;;;;;;;;;4995520;28;20030;-86
2022/03/24 11:21:39;;;;;;;23.90;15.82;;;;;;;;;;4977515;28;20022;-80
2022/03/24 11:24:05;;;;;;;25.00;17.40;;;;;;;;;;4974385;28;20061;-85
2022/03/24 11:26:31;;;;;;;24.80;16.20;;;;;;;;;;4976279;28;20037;-80
2022/03/24 11:28:58;;;;;;;27.15;17.42;;;;;;;;;;4972070;28;20030;-80
2022/03/24 11:31:25;;;;;;;23.73;16.25;;;;;;;;;;4970470;28;20113;-84
2022/03/24 11:33:54;;;;;;;21.88;14.63;;;;;;;;;;4986633;28;20053;-86
2022/03/24 11:36:24;;;;;;;24.35;15.98;;;;;;;;;;4975070;28;20057;-80
2022/03/24 11:38:58;;;;;;;26.33;16.25;;;;;;;;;;4973582;28;20149;-84
2022/03/24 11:41:33;;;;;;;25.00;16.50;;;;;;;;;;4974221;28;20038;-78
2022/03/24 11:44:06;;;;;;;23.90;16.00;;;;;;;;;;4977184;28;20196;-79
2022/03/24 11:46:39;;;;;;;24.92;16.30;;;;;;;;;;4981629;28;20496;-87
2022/03/24 11:49:31;;;;;;;23.67;15.70;;;;;;;;;;4979535;28;20034;-87
2022/03/24 11:51:56;;;;;;;24.65;15.13;;;;;;;;;;4971834;28;20049;-84
2022/03/24 11:54:31;;;;;;;27.13;16.63;;;;;;;;;;4977888;28;20152;-79
2022/03/24 11:57:22;;;;;;;30.50;16.33;;;;;;;;;;4978978;28;20062;-83
2022/03/24 12:00:13;;;;;;;26.17;16.30;;;;;;;;;;4982123;28;20505;-79
2022/03/24 12:02:40;;;;;;;25.65;16.42;;;;;;;;;;4968768;28;20121;-79
2022/03/24 12:05:06;;;;;;;25.92;15.98;;;;;;;;;;4995061;28;20034;-83
2022/03/24 12:07:31;;;;;;;28.00;16.58;;;;;;;;;;4995883;28;20027;-79
2022/03/24 12:10:09;;;;;;;26.95;16.50;;;;;;;;;;4977158;28;20030;-88
2022/03/24 12:12:35;;;;;;;26.60;16.13;;;;;;;;;;4976275;28;20027;-79
2022/03/24 12:15:17;;;;;;;24.35;16.40;;;;;;;;;;4974874;28;20026;-79
2022/03/24 12:18:05;;;;;;;30.15;16.38;;;;;;;;;;4982973;28;20034;-85
2022/03/24 12:20:40;;;;;;;22.92;16.27;;;;;;;;;;4979451;28;20084;-79
2022/03/24 12:23:05;;;;;;;25.33;16.92;;;;;;;;;;4976857;28;20014;-84
2022/03/24 12:25:31;;;;;;;26.27;16.33;;;;;;;;;;4994357;28;20034;-85
2022/03/24 12:28:05;;;;;;;27.58;17.38;;;;;;;;;;4998259;28;20437;-79
2022/03/24 12:30:58;;;;;;;22.88;16.83;;;;;;;;;;4975427;28;20030;-87
2022/03/24 12:33:46;;;;;;;27.45;16.35;;;;;;;;;;4987702;28;20085;-84
2022/03/24 12:36:14;;;;;;;30.73;16.60;;;;;;;;;;4992203;28;20494;-79
2022/03/24 12:38:46;;;;;;;25.95;16.63;;;;;;;;;;4994443;28;20053;-78
2022/03/24 12:41:17;;;;;;;25.88;16.58;;;;;;;;;;4975629;28;20030;-79
2022/03/24 12:43:55;;;;;;;28.17;16.08;;;;;;;;;;4992424;28;20431;-78
2022/03/24 12:46:28;;;;;;;24.10;15.80;;;;;;;;;;4974250;28;20105;-79
2022/03/24 12:49:00;;;;;;;28.65;16.67;;;;;;;;;;4994091;28;20031;-79
2022/03/24 12:51:29;;;;;;;26.55;15.75;;;;;;;;;;4994205;28;20053;-80
2022/03/24 12:53:57;;;;;;;25.73;16.23;;;;;;;;;;4977837;28;20026;-84
2022/03/24 12:56:31;;;;;;;24.80;15.88;;;;;;;;;;4990049;28;20104;-80
2022/03/24 12:59:05;;;;;;;26.38;16.25;;;;;;;;;;4974217;28;20030;-79
2022/03/24 13:01:31;;;;;;;25.27;16.40;;;;;;;;;;5006813;28;20034;-85
2022/03/24 13:04:00;;;;;;;25.73;16.88;;;;;;;;;;4993647;28;20015;-87
2022/03/24 13:06:26;;;;;;;26.00;17.63;;;;;;;;;;4975228;28;20479;-80
2022/03/24 13:09:14;;;;;;;26.15;17.48;;;;;;;;;;4995414;28;20036;-79
2022/03/24 13:12:02;;;;;;;23.85;16.27;;;;;;;;;;4978229;28;20395;-88
2022/03/24 13:14:29;;;;;;;30.20;16.02;;;;;;;;;;4990370;28;20033;-78
2022/03/24 13:17:01;;;;;;;28.38;16.77;;;;;;;;;;4997536;28;20073;-79
2022/03/24 13:19:27;;;;;;;25.08;17.52;;;;;;;;;;4976805;28;20022;-84
2022/03/24 13:21:53;;;;;;;24.25;15.90;;;;;;;;;;4997854;28;20033;-78
2022/03/24 13:24:20;;;;;;;25.95;16.98;;;;;;;;;;4992432;28;20022;-86
2022/03/24 13:26:56;;;;;;;24.60;16.48;;;;;;;;;;4977258;28;20026;-87
2022/03/24 13:29:22;;;;;;;27.77;16.15;;;;;;;;;;4977971;28;20021;-84
2022/03/24 13:31:48;;;;;;;29.90;17.08;;;;;;;;;;4976599;28;20097;-85
2022/03/24 13:34:14;;;;;;;29.40;16.40;;;;;;;;;;4993792;28;20081;-79
2022/03/24 13:36:39;;;;;;;27.90;17.75;;;;;;;;;;4980775;28;20033;-86
2022/03/24 13:39:05;;;;;;;25.90;17.00;;;;;;;;;;4989559;28;20022;-79
2022/03/24 13:41:31;;;;;;;27.70;17.40;;;;;;;;;;4976128;28;20398;-80
2022/03/24 13:43:57;;;;;;;27.42;17.75;;;;;;;;;;4992260;28;20550;-80
2022/03/24 13:46:23;;;;;;;28.48;16.52;;;;;;;;;;4977963;28;20422;-84
2022/03/24 13:48:50;;;;;;;28.00;16.83;;;;;;;;;;4975538;28;20072;-85
2022/03/24 13:51:19;;;;;;;28.60;16.60;;;;;;;;;;4976645;28;20054;-86
2022/03/24 13:53:44;;;;;;;26.27;16.88;;;;;;;;;;4993113;28;20030;-84
2022/03/24 13:56:12;;;;;;;25.85;16.27;;;;;;;;;;4996158;28;20127;-85
2022/03/24 13:58:39;;;;;;;26.23;15.52;;;;;;;;;;4976114;28;20076;-86
2022/03/24 14:01:12;;;;;;;27.48;16.70;;;;;;;;;;4977544;28;20019;-84
2022/03/24 14:03:40;;;;;;;23.67;16.10;;;;;;;;;;4991238;28;20026;-84
2022/03/24 14:06:13;;;;;;;26.40;16.42;;;;;;;;;;4976529;28;20028;-84
2022/03/24 14:08:42;;;;;;;30.38;16.55;;;;;;;;;;4992988;28;20039;-79
2022/03/24 14:11:20;;;;;;;28.77;17.23;;;;;;;;;;4996114;28;20021;-85
2022/03/24 14:13:51;;;;;;;31.08;16.77;;;;;;;;;;4973238;28;20042;-79
2022/03/24 14:16:25;;;;;;;28.65;17.23;;;;;;;;;;4993525;28;20026;-87
2022/03/24 14:19:06;;;;;;;27.00;17.33;;;;;;;;;;4976218;28;20034;-79